Time;durP1;ratioP1;P1;durP2;ratioP2;P2;SDS_P1;SDS_P2;PMS_P1;PMS_P2;Temp;Humidity;BMP_temperature;BMP_pressure;BME280_temperature;BME280_humidity;BME280_pressure;Samples;Min_cycle;Max_cycle;Signal;HPM_P1;HPM_P2
2023/05/04 00:00:14;;;;;;;8.60;6.10;;;;;;;25.53;32.36;100777.77;108207;1251;62860;-67
2023/05/04 00:02:41;;;;;;;15.30;7.60;;;;;;;25.48;32.34;100781.31;108218;1253;74861;-64
2023/05/04 00:05:09;;;;;;;8.00;6.20;;;;;;;25.26;32.73;100776.95;108265;1253;70605;-65
2023/05/04 00:07:35;;;;;;;11.30;6.90;;;;;;;25.18;32.62;100779.43;108163;1254;74616;-65
2023/05/04 00:10:03;;;;;;;12.60;7.30;;;;;;;25.28;32.51;100779.11;108227;1253;63186;-66
2023/05/04 00:12:30;;;;;;;9.50;6.70;;;;;;;25.43;32.19;100777.10;108320;1252;61384;-67
2023/05/04 00:14:57;;;;;;;10.90;7.70;;;;;;;25.27;32.40;100777.05;108316;1253;71147;-66
2023/05/04 00:17:24;;;;;;;10.00;6.70;;;;;;;25.47;32.24;100777.13;108232;1253;70353;-64
2023/05/04 00:19:51;;;;;;;9.60;6.90;;;;;;;25.45;32.31;100780.30;108242;1254;74538;-65
2023/05/04 00:22:17;;;;;;;12.20;7.60;;;;;;;25.25;32.41;100787.42;108201;1253;63131;-66
2023/05/04 00:24:44;;;;;;;13.00;7.90;;;;;;;24.76;33.16;100790.30;108347;1252;61215;-66
2023/05/04 00:27:11;;;;;;;10.90;7.00;;;;;;;24.79;33.21;100795.58;108243;1253;71840;-67
2023/05/04 00:29:40;;;;;;;10.10;7.00;;;;;;;25.14;32.75;100795.09;108235;1254;71462;-65
2023/05/04 00:32:08;;;;;;;9.70;7.80;;;;;;;25.13;32.91;100793.38;108292;1252;73907;-66
2023/05/04 00:34:35;;;;;;;15.00;8.30;;;;;;;25.16;33.02;100799.61;108221;1256;60410;-65
2023/05/04 00:37:01;;;;;;;8.80;7.00;;;;;;;24.94;33.10;100796.96;108236;1254;61204;-63
2023/05/04 00:39:28;;;;;;;11.10;8.30;;;;;;;24.74;33.51;100796.76;108244;1254;73786;-65
2023/05/04 00:41:55;;;;;;;13.20;8.40;;;;;;;24.48;33.90;100793.55;108105;1253;71329;-65
2023/05/04 00:44:22;;;;;;;17.70;9.00;;;;;;;24.30;34.18;100789.50;108214;1254;73839;-65
2023/05/04 00:46:51;;;;;;;11.10;8.60;;;;;;;24.40;34.11;100787.08;108053;1252;63709;-63
2023/05/04 00:49:20;;;;;;;14.10;9.20;;;;;;;24.33;34.29;100787.09;108234;1253;62279;-65
2023/05/04 00:51:47;;;;;;;12.00;8.50;;;;;;;23.96;34.87;100787.11;108122;1254;74882;-65
2023/05/04 00:54:17;;;;;;;13.80;8.80;;;;;;;23.91;35.00;100786.27;108193;1253;72455;-66
2023/05/04 00:56:44;;;;;;;14.10;8.40;;;;;;;23.84;35.23;100788.20;108076;1254;72402;-65
2023/05/04 00:59:12;;;;;;;14.70;9.30;;;;;;;23.94;35.26;100794.13;108147;1254;63289;-65
2023/05/04 01:01:40;;;;;;;11.20;8.40;;;;;;;24.17;35.04;100794.77;108111;1254;62847;-65
2023/05/04 01:04:08;;;;;;;14.10;8.60;;;;;;;24.13;35.18;100791.98;108161;1254;74882;-66
2023/05/04 01:06:43;;;;;;;14.50;8.70;;;;;;;24.23;35.09;100794.45;108074;1254;71218;-66
2023/05/04 01:09:24;;;;;;;10.70;7.90;;;;;;;24.39;34.98;100795.77;108079;1253;71802;-64
2023/05/04 01:12:05;;;;;;;9.50;7.90;;;;;;;24.52;34.73;100795.35;108034;1254;61584;-65
2023/05/04 01:14:32;;;;;;;13.00;9.00;;;;;;;24.57;34.68;100795.54;108042;1253;62570;-67
2023/05/04 01:17:02;;;;;;;11.40;8.80;;;;;;;24.62;34.86;100787.41;108073;1253;74996;-66
2023/05/04 01:19:29;;;;;;;16.00;8.80;;;;;;;24.50;35.02;100792.67;108064;1253;70468;-66
2023/05/04 01:21:56;;;;;;;11.00;8.50;;;;;;;24.53;35.04;100790.83;108201;1253;72364;-67
2023/05/04 01:24:26;;;;;;;13.20;8.70;;;;;;;24.68;35.08;100785.75;108021;1254;63170;-67
2023/05/04 01:27:07;;;;;;;12.70;8.90;;;;;;;24.97;34.61;100784.67;107980;1253;62415;-66
2023/05/04 01:29:48;;;;;;;;;;;;;;;24.86;34.79;100787.79;108044;1253;73622;-66
2023/05/04 01:32:15;;;;;;;11.50;8.50;;;;;;;24.96;34.65;100794.11;108080;1254;71878;-66
2023/05/04 01:34:42;;;;;;;10.50;8.30;;;;;;;25.04;34.50;100795.83;107950;1253;74368;-66
2023/05/04 01:37:09;;;;;;;11.10;8.50;;;;;;;25.01;34.47;100798.86;108089;1254;59797;-65
2023/05/04 01:39:35;;;;;;;15.80;8.80;;;;;;;25.07;34.40;100791.96;107971;1253;60802;-65
2023/05/04 01:42:02;;;;;;;11.20;8.60;;;;;;;25.14;34.36;100792.73;108141;1253;72934;-65
2023/05/04 01:44:29;;;;;;;9.90;7.90;;;;;;;25.17;34.30;100797.13;108030;1254;71261;-65
2023/05/04 01:46:56;;;;;;;12.50;8.20;;;;;;;25.10;34.22;100798.50;108039;1254;73266;-64
2023/05/04 01:49:23;;;;;;;12.70;8.50;;;;;;;25.31;34.12;100800.95;108066;1252;61391;-65
2023/05/04 01:51:50;;;;;;;14.60;9.10;;;;;;;25.18;34.46;100791.47;108065;1258;62428;-63
2023/05/04 01:54:17;;;;;;;11.50;8.70;;;;;;;25.02;34.68;100787.36;108065;1254;75208;-65
2023/05/04 01:56:43;;;;;;;10.20;7.90;;;;;;;25.00;34.76;100786.41;108212;1254;71761;-65
2023/05/04 01:59:10;;;;;;;11.60;9.30;;;;;;;25.08;34.56;100777.95;108226;1256;74584;-65
2023/05/04 02:01:38;;;;;;;12.80;8.50;;;;;;;24.93;34.73;100776.77;108132;1254;63007;-67
2023/05/04 02:04:05;;;;;;;12.90;8.80;;;;;;;24.94;34.84;100781.35;108067;1253;59236;-66
2023/05/04 02:06:33;;;;;;;12.90;8.40;;;;;;;24.91;34.83;100782.14;108012;1254;75381;-68
2023/05/04 02:08:59;;;;;;;12.00;8.60;;;;;;;25.07;34.58;100783.30;108146;1254;70122;-66
2023/05/04 02:11:26;;;;;;;14.80;9.00;;;;;;;25.03;34.66;100781.52;108039;1254;72559;-68
2023/05/04 02:13:53;;;;;;;10.90;8.50;;;;;;;24.98;34.71;100774.23;107902;1259;62097;-66
2023/05/04 02:16:20;;;;;;;12.90;8.30;;;;;;;24.93;34.70;100777.30;107991;1253;61262;-66
2023/05/04 02:18:47;;;;;;;13.40;9.30;;;;;;;24.89;34.91;100780.18;108081;1254;74519;-65
2023/05/04 02:21:14;;;;;;;10.60;8.00;;;;;;;25.05;34.67;100777.70;108084;1254;72350;-66
2023/05/04 02:23:42;;;;;;;12.90;9.50;;;;;;;25.18;34.43;100782.29;108123;1253;71940;-67
2023/05/04 02:26:10;;;;;;;13.30;9.50;;;;;;;24.88;34.79;100783.67;108100;1254;63029;-66
2023/05/04 02:28:36;;;;;;;12.90;9.60;;;;;;;24.55;35.36;100783.86;108121;1254;61123;-66
2023/05/04 02:31:03;;;;;;;12.10;9.40;;;;;;;24.45;35.49;100776.41;108071;1254;74839;-67
2023/05/04 02:33:30;;;;;;;17.30;9.80;;;;;;;24.65;35.33;100771.80;108088;1254;71105;-67
2023/05/04 02:35:57;;;;;;;11.50;8.80;;;;;;;24.80;35.02;100767.67;108129;1254;74893;-66
2023/05/04 02:38:25;;;;;;;12.40;9.60;;;;;;;25.12;34.57;100764.87;108129;1257;60965;-67
2023/05/04 02:40:52;;;;;;;14.70;8.90;;;;;;;24.81;35.01;100775.52;108105;1254;62889;-67
2023/05/04 02:43:18;;;;;;;17.70;9.60;;;;;;;24.03;35.98;100775.62;107930;1254;75262;-67
2023/05/04 02:45:45;;;;;;;13.80;9.90;;;;;;;24.55;35.45;100776.44;108046;1252;70264;-67
2023/05/04 02:48:12;;;;;;;11.60;9.10;;;;;;;24.37;35.50;100777.23;108037;1254;73295;-67
2023/05/04 02:50:39;;;;;;;15.00;10.40;;;;;;;24.96;34.84;100772.24;108125;1254;63523;-67
2023/05/04 02:53:06;;;;;;;13.20;10.00;;;;;;;24.73;35.11;100774.02;108077;1254;60328;-67
2023/05/04 02:55:33;;;;;;;13.40;9.10;;;;;;;24.81;35.06;100765.50;108086;1254;74934;-67
2023/05/04 02:58:00;;;;;;;12.60;10.00;;;;;;;24.78;35.17;100757.85;108226;1253;70878;-67
2023/05/04 03:00:26;;;;;;;13.20;10.20;;;;;;;25.05;34.79;100751.14;108126;1254;70984;-67
2023/05/04 03:02:53;;;;;;;14.60;10.20;;;;;;;25.06;34.71;100756.23;108091;1253;60434;-67
2023/05/04 03:05:20;;;;;;;15.40;10.70;;;;;;;24.98;34.85;100764.31;108084;1259;60407;-67
2023/05/04 03:07:47;;;;;;;17.50;11.90;;;;;;;25.19;34.62;100764.52;108086;1253;75914;-66
2023/05/04 03:10:14;;;;;;;15.40;9.90;;;;;;;25.15;34.68;100764.77;107997;1254;72013;-67
2023/05/04 03:12:41;;;;;;;13.50;10.30;;;;;;;24.77;35.20;100769.02;108172;1254;73186;-64
2023/05/04 03:15:08;;;;;;;14.30;10.40;;;;;;;24.73;35.28;100773.98;108174;1253;62894;-67
2023/05/04 03:17:36;;;;;;;13.90;10.20;;;;;;;25.03;35.03;100773.02;108145;1254;61664;-66
2023/05/04 03:20:04;;;;;;;14.40;10.40;;;;;;;25.40;34.46;100772.56;108170;1258;75889;-66
2023/05/04 03:22:31;;;;;;;15.50;11.20;;;;;;;25.42;34.58;100775.04;108043;1254;70426;-67
2023/05/04 03:24:58;;;;;;;12.90;9.90;;;;;;;25.73;34.29;100776.02;108258;1253;73783;-65
2023/05/04 03:27:25;;;;;;;13.50;10.20;;;;;;;25.84;34.08;100779.29;108046;1254;62896;-65
2023/05/04 03:29:52;;;;;;;12.70;10.20;;;;;;;25.77;34.29;100780.71;108196;1254;60323;-67
2023/05/04 03:32:19;;;;;;;16.10;10.60;;;;;;;25.27;35.11;100771.11;108168;1254;73057;-67
2023/05/04 03:34:46;;;;;;;12.60;10.10;;;;;;;25.68;34.84;100760.46;108009;1253;71087;-65
2023/05/04 03:37:13;;;;;;;13.80;11.00;;;;;;;25.65;35.03;100751.56;108146;1254;74679;-66
2023/05/04 03:39:40;;;;;;;15.30;10.60;;;;;;;25.63;35.12;100747.77;108001;1257;64296;-66
2023/05/04 03:42:07;;;;;;;17.90;11.60;;;;;;;25.96;34.81;100744.60;107996;1254;61142;-67
2023/05/04 03:44:34;;;;;;;13.80;10.50;;;;;;;26.23;34.52;100740.25;108108;1253;75246;-67
2023/05/04 03:47:01;;;;;;;14.60;10.90;;;;;;;26.17;34.37;100737.42;107995;1252;72347;-67
2023/05/04 03:49:28;;;;;;;14.80;9.40;;;;;;;26.00;34.58;100740.30;108050;1259;74681;-66
2023/05/04 03:51:55;;;;;;;13.60;10.40;;;;;;;26.00;34.65;100741.01;108147;1254;61127;-67
2023/05/04 03:54:22;;;;;;;15.80;10.60;;;;;;;26.07;34.64;100747.40;108053;1254;61016;-67
2023/05/04 03:56:48;;;;;;;16.50;10.30;;;;;;;25.88;34.86;100750.01;108047;1254;75766;-67
2023/05/04 03:59:16;;;;;;;16.60;10.70;;;;;;;25.75;34.98;100755.52;108200;1252;72109;-68
2023/05/04 04:01:43;;;;;;;14.80;9.80;;;;;;;25.63;35.22;100764.14;108300;1254;72664;-67
2023/05/04 04:04:10;;;;;;;13.80;10.60;;;;;;;25.74;35.14;100766.94;108060;1254;64287;-68
2023/05/04 04:06:37;;;;;;;13.10;10.30;;;;;;;25.84;35.06;100767.84;108251;1254;60296;-67
2023/05/04 04:09:06;;;;;;;13.90;9.20;;;;;;;25.83;35.16;100764.84;108194;1254;75881;-66
2023/05/04 04:11:33;;;;;;;14.90;9.60;;;;;;;26.07;34.91;100769.89;108140;1256;71529;-66
2023/05/04 04:14:00;;;;;;;13.60;9.30;;;;;;;26.25;34.51;100766.93;108198;1254;75109;-66
2023/05/04 04:16:27;;;;;;;11.40;8.20;;;;;;;26.79;33.61;100769.42;108272;1252;64448;-66
2023/05/04 04:18:54;;;;;;;13.60;9.10;;;;;;;26.77;33.66;100770.93;108280;1253;62337;-67
2023/05/04 04:21:20;;;;;;;10.50;8.00;;;;;;;26.79;33.74;100769.31;108276;1254;73081;-67
2023/05/04 04:23:47;;;;;;;13.90;9.20;;;;;;;26.63;34.03;100771.66;108175;1254;71337;-66
2023/05/04 04:26:14;;;;;;;11.30;8.30;;;;;;;27.08;33.75;100771.53;108163;1254;73327;-65
2023/05/04 04:28:43;;;;;;;11.20;8.70;;;;;;;27.46;33.07;100775.43;108152;1254;62867;-67
2023/05/04 04:31:10;;;;;;;12.20;8.40;;;;;;;27.83;32.56;100772.31;108226;1256;61084;-66
2023/05/04 04:33:37;;;;;;;9.90;7.60;;;;;;;28.06;32.19;100770.18;108181;1254;75813;-65
2023/05/04 04:36:04;;;;;;;12.50;7.90;;;;;;;28.64;31.63;100770.68;108142;1254;72201;-67
2023/05/04 04:38:31;;;;;;;11.60;7.80;;;;;;;29.02;31.01;100771.78;108172;1253;74341;-65
2023/05/04 04:40:57;;;;;;;8.90;7.60;;;;;;;28.93;30.65;100774.84;108173;1254;61819;-67
2023/05/04 04:43:24;;;;;;;11.70;8.00;;;;;;;28.54;30.89;100775.44;108166;1257;61041;-68
2023/05/04 04:45:52;;;;;;;10.10;7.90;;;;;;;28.37;31.25;100779.42;108139;1254;74607;-66
2023/05/04 04:48:20;;;;;;;11.40;7.60;;;;;;;27.84;31.80;100786.85;108199;1254;69161;-66
2023/05/04 04:50:47;;;;;;;10.40;7.70;;;;;;;27.64;31.81;100785.38;108143;1253;73386;-67
2023/05/04 04:53:14;;;;;;;10.80;7.50;;;;;;;27.90;31.66;100786.81;108226;1254;62790;-65
2023/05/04 04:55:41;;;;;;;14.00;7.90;;;;;;;28.29;31.30;100786.64;108149;1253;62718;-67
2023/05/04 04:58:08;;;;;;;13.00;8.20;;;;;;;28.09;31.44;100787.57;108234;1252;72859;-66
2023/05/04 05:00:35;;;;;;;26.90;8.50;;;;;;;27.96;31.78;100784.27;108138;1256;68920;-67
2023/05/04 05:03:03;;;;;;;19.70;8.50;;;;;;;28.02;31.73;100786.34;108129;1254;72641;-66
2023/05/04 05:05:30;;;;;;;12.90;7.40;;;;;;;28.19;31.35;100789.46;108019;1253;62349;-67
2023/05/04 05:07:57;;;;;;;17.50;8.90;;;;;;;28.31;31.29;100790.23;108178;1252;62691;-65
2023/05/04 05:10:24;;;;;;;15.90;7.80;;;;;;;27.93;31.65;100791.39;108186;1254;75907;-64
2023/05/04 05:12:51;;;;;;;16.20;7.70;;;;;;;28.07;31.62;100795.00;108201;1255;71308;-66
2023/05/04 05:15:18;;;;;;;18.20;8.10;;;;;;;28.06;31.67;100799.52;108146;1254;73873;-67
2023/05/04 05:17:45;;;;;;;10.20;7.40;;;;;;;28.19;31.50;100794.40;108239;1254;61739;-68
2023/05/04 05:20:13;;;;;;;9.60;7.10;;;;;;;27.96;31.74;100795.48;108134;1256;62274;-67
2023/05/04 05:22:41;;;;;;;10.20;6.80;;;;;;;27.96;31.75;100797.26;108151;1255;75528;-68
2023/05/04 05:25:08;;;;;;;12.40;7.50;;;;;;;28.22;31.49;100796.99;108129;1254;72563;-66
2023/05/04 05:27:35;;;;;;;14.30;7.70;;;;;;;28.02;31.49;100796.77;108126;1254;74733;-66
2023/05/04 05:30:04;;;;;;;22.20;7.70;;;;;;;28.31;31.24;100800.94;108210;1251;61548;-68
2023/05/04 05:32:31;;;;;;;14.00;6.80;;;;;;;28.60;31.04;100802.33;108356;1254;60242;-66
2023/05/04 05:34:58;;;;;;;10.10;7.30;;;;;;;28.87;30.79;100801.01;108213;1253;76461;-68
2023/05/04 05:37:26;;;;;;;14.30;6.60;;;;;;;29.11;30.58;100798.83;108257;1254;71993;-66
2023/05/04 05:39:53;;;;;;;11.70;7.10;;;;;;;29.67;29.57;100794.54;108272;1252;74593;-67
2023/05/04 05:42:20;;;;;;;10.00;6.60;;;;;;;29.79;29.34;100793.45;108157;1255;64136;-68
2023/05/04 05:44:47;;;;;;;13.10;6.50;;;;;;;29.90;29.35;100796.98;108203;1251;62382;-68
2023/05/04 05:47:14;;;;;;;14.30;6.50;;;;;;;30.27;28.73;100798.73;108226;1254;72356;-65
2023/05/04 05:49:40;;;;;;;12.50;7.00;;;;;;;31.07;27.84;100789.49;108158;1254;69747;-67
2023/05/04 05:52:11;;;;;;;;;;;;;;;32.15;26.58;100784.42;108291;1254;73381;-68
2023/05/04 05:54:38;;;;;;;8.40;5.60;;;;;;;32.97;25.74;100784.80;108232;1256;60613;-68
2023/05/04 05:57:05;;;;;;;11.90;5.80;;;;;;;33.35;25.40;100788.53;108058;1254;62536;-66
2023/05/04 05:59:32;;;;;;;9.60;6.30;;;;;;;33.74;24.76;100782.21;108119;1254;76161;-68
2023/05/04 06:01:59;;;;;;;14.20;5.30;;;;;;;34.04;24.45;100784.11;108176;1258;72116;-68
2023/05/04 06:04:25;;;;;;;12.20;6.60;;;;;;;34.52;23.80;100787.17;108213;1253;66364;-67
2023/05/04 06:06:52;;;;;;;10.20;5.90;;;;;;;34.89;23.28;100782.27;108125;1258;60309;-68
2023/05/04 06:09:19;;;;;;;11.80;5.70;;;;;;;34.79;23.29;100776.40;108197;1257;60718;-67
2023/05/04 06:11:46;;;;;;;11.20;6.00;;;;;;;34.59;23.37;100770.58;108161;1253;75428;-68
2023/05/04 06:14:14;;;;;;;13.30;6.20;;;;;;;34.44;23.23;100766.08;108172;1254;62476;-68
2023/05/04 06:16:40;;;;;;;12.30;5.80;;;;;;;33.79;23.67;100763.02;108131;1254;73418;-67
2023/05/04 06:19:07;;;;;;;16.60;7.40;;;;;;;33.85;23.48;100761.61;108106;1254;60977;-68
2023/05/04 06:21:34;;;;;;;13.00;6.80;;;;;;;33.88;23.67;100765.42;108206;1255;60349;-67
2023/05/04 06:24:01;;;;;;;16.20;6.70;;;;;;;33.78;24.07;100764.89;108097;1258;73109;-67
2023/05/04 06:26:28;;;;;;;14.80;7.40;;;;;;;33.44;24.05;100760.67;108178;1256;71059;-68
2023/05/04 06:28:55;;;;;;;14.50;6.60;;;;;;;33.29;24.57;100764.88;108244;1254;73283;-67
2023/05/04 06:31:23;;;;;;;14.40;7.90;;;;;;;33.41;24.26;100767.60;108160;1254;61140;-66
2023/05/04 06:33:50;;;;;;;16.10;7.50;;;;;;;33.48;24.31;100767.14;108062;1257;62724;-66
2023/05/04 06:36:17;;;;;;;17.40;8.50;;;;;;;33.46;24.53;100759.02;108175;1256;74424;-67
2023/05/04 06:38:44;;;;;;;19.30;8.10;;;;;;;33.27;24.67;100762.64;108062;1254;72524;-67
2023/05/04 06:41:11;;;;;;;15.40;7.70;;;;;;;33.41;24.58;100763.29;108107;1257;71765;-68
2023/05/04 06:43:41;;;;;;;26.80;8.50;;;;;;;33.35;24.39;100761.81;108215;1255;61482;-68
2023/05/04 06:46:07;;;;;;;21.60;8.10;;;;;;;33.74;24.30;100757.13;108123;1255;60574;-67
2023/05/04 06:48:34;;;;;;;18.90;7.00;;;;;;;33.69;24.25;100754.39;108164;1253;72327;-67
2023/05/04 06:51:01;;;;;;;11.90;6.70;;;;;;;34.08;23.77;100759.46;108149;1254;71301;-67
2023/05/04 06:53:28;;;;;;;11.60;6.30;;;;;;;34.38;23.49;100760.92;108102;1254;75068;-67
2023/05/04 06:55:55;;;;;;;10.20;6.30;;;;;;;34.64;23.26;100756.30;108212;1251;60512;-66
2023/05/04 06:58:22;;;;;;;15.20;6.60;;;;;;;34.93;22.89;100751.71;108244;1252;60450;-68
2023/05/04 07:00:50;;;;;;;15.30;6.80;;;;;;;35.11;22.78;100752.36;108198;1253;66213;-68
2023/05/04 07:03:16;;;;;;;21.30;6.60;;;;;;;35.40;22.49;100746.69;108179;1257;63847;-69
2023/05/04 07:05:44;;;;;;;10.80;6.10;;;;;;;35.51;22.19;100745.93;108184;1253;64841;-68
2023/05/04 07:08:11;;;;;;;12.20;6.60;;;;;;;36.00;22.04;100744.67;108158;1254;60437;-68
2023/05/04 07:10:38;;;;;;;15.20;6.90;;;;;;;36.21;21.66;100746.60;108171;1256;60332;-68
2023/05/04 07:13:05;;;;;;;12.10;6.00;;;;;;;36.68;21.32;100745.77;108189;1254;66903;-66
2023/05/04 07:15:32;;;;;;;12.00;5.80;;;;;;;36.95;20.72;100747.60;108213;1253;63507;-64
2023/05/04 07:18:00;;;;;;;10.40;5.60;;;;;;;37.10;20.57;100746.38;108103;1258;65900;-66
2023/05/04 07:20:27;;;;;;;10.30;5.80;;;;;;;36.84;20.75;100746.27;108311;1254;60459;-67
2023/05/04 07:22:57;;;;;;;13.50;6.10;;;;;;;37.25;20.30;100743.83;108161;1252;60296;-68
2023/05/04 07:25:24;;;;;;;12.90;5.20;;;;;;;37.10;20.41;100750.77;108189;1256;67428;-67
2023/05/04 07:27:52;;;;;;;8.30;5.20;;;;;;;37.00;20.47;100754.17;108254;1254;62228;-67
2023/05/04 07:30:19;;;;;;;8.30;4.90;;;;;;;36.93;20.47;100754.91;108271;1256;66166;-67
2023/05/04 07:32:46;;;;;;;12.80;4.90;;;;;;;37.34;20.16;100748.45;108240;1254;60439;-68
2023/05/04 07:35:13;;;;;;;10.80;5.60;;;;;;;37.19;20.38;100748.21;108210;1254;60300;-68
2023/05/04 07:37:40;;;;;;;11.20;5.60;;;;;;;37.02;20.59;100747.50;108269;1256;66987;-69
2023/05/04 07:40:09;;;;;;;7.20;5.10;;;;;;;36.75;20.85;100749.58;108317;1254;63812;-68
2023/05/04 07:42:36;;;;;;;10.00;5.80;;;;;;;37.04;20.72;100749.77;108274;1254;66339;-69
2023/05/04 07:45:03;;;;;;;8.00;4.90;;;;;;;37.18;20.51;100750.78;108175;1254;60325;-69
2023/05/04 07:47:30;;;;;;;9.80;4.90;;;;;;;37.61;20.25;100750.27;108279;1254;60395;-68
2023/05/04 07:49:57;;;;;;;8.50;5.30;;;;;;;38.01;19.77;100750.77;108305;1254;67085;-67
2023/05/04 07:52:23;;;;;;;11.40;5.80;;;;;;;38.21;19.64;100748.60;108185;1257;62559;-69
2023/05/04 07:54:52;;;;;;;12.30;6.00;;;;;;;38.09;19.42;100747.38;108199;1254;65139;-68
2023/05/04 07:57:19;;;;;;;12.80;5.50;;;;;;;38.23;19.49;100749.55;108271;1253;60336;-69
2023/05/04 07:59:46;;;;;;;8.30;5.70;;;;;;;38.16;19.92;100751.72;108181;1253;60313;-68
2023/05/04 08:02:13;;;;;;;11.30;5.10;;;;;;;37.76;19.99;100754.79;108154;1255;66243;-69
2023/05/04 08:04:40;;;;;;;8.90;5.50;;;;;;;37.85;20.00;100753.33;108138;1254;63479;-68
2023/05/04 08:07:07;;;;;;;16.50;6.10;;;;;;;37.97;19.64;100755.20;108027;1254;71521;-68
2023/05/04 08:09:34;;;;;;;7.90;5.20;;;;;;;38.01;19.39;100753.35;108143;1255;60324;-69
2023/05/04 08:12:03;;;;;;;9.00;5.50;;;;;;;37.95;19.54;100748.13;108171;1254;60408;-69
2023/05/04 08:14:30;;;;;;;16.80;5.90;;;;;;;38.23;19.34;100749.13;108206;1257;67153;-71
2023/05/04 08:16:56;;;;;;;12.80;5.80;;;;;;;37.83;19.69;100750.19;108094;1254;62896;-69
2023/05/04 08:19:23;;;;;;;9.60;5.10;;;;;;;37.45;19.83;100749.46;108001;1255;65914;-69
2023/05/04 08:21:50;;;;;;;11.00;5.50;;;;;;;37.30;19.73;100748.56;108134;1253;60450;-67
2023/05/04 08:24:17;;;;;;;9.40;5.20;;;;;;;37.57;19.75;100744.33;108103;1254;60370;-68
2023/05/04 08:26:47;;;;;;;12.00;5.80;;;;;;;37.70;19.77;100742.42;108018;1254;66982;-65
2023/05/04 08:29:30;;;;;;;9.20;5.20;;;;;;;37.68;19.67;100745.94;108051;1257;63459;-69
2023/05/04 08:31:57;;;;;;;14.40;5.90;;;;;;;37.62;19.79;100745.36;108178;1254;65946;-66
2023/05/04 08:34:25;;;;;;;13.70;5.80;;;;;;;37.96;19.49;100747.50;108175;1253;60334;-67
2023/05/04 08:36:52;;;;;;;10.40;6.20;;;;;;;38.07;19.40;100743.98;108019;1254;60262;-67
2023/05/04 08:39:19;;;;;;;10.40;5.40;;;;;;;38.11;19.38;100740.29;108187;1254;65821;-69
2023/05/04 08:41:46;;;;;;;12.00;5.40;;;;;;;38.06;19.23;100735.70;108060;1254;63825;-68
2023/05/04 08:44:13;;;;;;;9.50;5.60;;;;;;;38.33;19.23;100736.56;108158;1254;64810;-67
2023/05/04 08:46:41;;;;;;;8.90;5.70;;;;;;;38.08;19.28;100734.42;108162;1255;60545;-68
2023/05/04 08:49:09;;;;;;;19.60;6.80;;;;;;;37.68;19.82;100732.96;108051;1254;60338;-68
2023/05/04 08:51:36;;;;;;;15.90;6.50;;;;;;;37.68;19.85;100727.67;108034;1255;67309;-70
2023/05/04 08:54:06;;;;;;;10.20;5.60;;;;;;;37.68;19.80;100723.45;108100;1254;62885;-72
2023/05/04 08:56:34;;;;;;;8.80;5.90;;;;;;;37.46;19.91;100719.27;107991;1254;64767;-70
2023/05/04 08:59:02;;;;;;;12.90;6.50;;;;;;;37.47;20.01;100720.58;108194;1254;60419;-70
2023/05/04 09:01:29;;;;;;;9.10;5.50;;;;;;;37.83;19.62;100719.06;108069;1254;60308;-70
2023/05/04 09:03:56;;;;;;;11.50;6.30;;;;;;;38.01;19.45;100716.64;108070;1254;65844;-68
2023/05/04 09:06:23;;;;;;;11.70;6.80;;;;;;;38.39;19.35;100720.52;107986;1253;63782;-67
2023/05/04 09:08:50;;;;;;;11.40;6.10;;;;;;;38.90;18.82;100722.45;108202;1257;66144;-68
2023/05/04 09:11:16;;;;;;;12.70;6.40;;;;;;;39.30;18.18;100716.80;108128;1254;60284;-69
2023/05/04 09:13:43;;;;;;;14.30;6.40;;;;;;;39.48;18.38;100716.32;108046;1253;60324;-69
2023/05/04 09:16:10;;;;;;;14.30;6.40;;;;;;;39.87;18.07;100715.53;108195;1254;66036;-69
2023/05/04 09:18:42;;;;;;;9.50;6.40;;;;;;;40.07;17.75;100719.61;108214;1253;64015;-67
2023/05/04 09:21:09;;;;;;;14.50;5.90;;;;;;;39.54;18.30;100722.08;108174;1254;66080;-69
2023/05/04 09:23:49;;;;;;;20.60;6.20;;;;;;;39.09;18.28;100722.61;108186;1254;60447;-68
2023/05/04 09:26:28;;;;;;;16.90;6.40;;;;;;;39.10;18.20;100722.06;108214;1254;60290;-69
2023/05/04 09:28:55;;;;;;;14.60;5.60;;;;;;;39.53;18.10;100719.44;108251;1254;67008;-69
2023/05/04 09:31:22;;;;;;;18.50;6.70;;;;;;;39.67;17.76;100721.14;108209;1257;63493;-69
2023/05/04 09:33:49;;;;;;;12.60;5.00;;;;;;;39.75;17.48;100721.46;108294;1254;66286;-68
2023/05/04 09:36:20;;;;;;;14.00;6.20;;;;;;;39.74;17.60;100722.88;108096;1254;60834;-68
2023/05/04 09:38:47;;;;;;;12.60;6.30;;;;;;;40.01;17.31;100718.95;108131;1252;59534;-68
2023/05/04 09:41:15;;;;;;;8.20;5.20;;;;;;;40.27;17.51;100715.85;108108;1256;75900;-67
2023/05/04 09:43:42;;;;;;;14.20;5.90;;;;;;;40.47;17.25;100718.86;108178;1255;62855;-71
2023/05/04 09:46:17;;;;;;;14.30;6.40;;;;;;;40.82;17.08;100714.98;108176;1255;66014;-71
2023/05/04 09:48:51;;;;;;;9.90;5.20;;;;;;;40.81;17.04;100709.71;108179;1254;60402;-70
2023/05/04 09:51:22;;;;;;;9.60;5.20;;;;;;;40.38;17.01;100709.34;108197;1251;60236;-70
2023/05/04 09:53:49;;;;;;;10.00;5.30;;;;;;;40.23;17.21;100703.77;108089;1253;291552;-70
2023/05/04 09:57:14;;;;;;;12.20;5.80;;;;;;;36.86;20.17;100708.88;104926;1289;600052;-68
2023/05/04 09:59:41;;;;;;;11.30;5.00;;;;;;;39.00;18.24;100704.77;107260;1264;59455;-68
2023/05/04 10:02:10;;;;;;;8.80;5.40;;;;;;;39.71;17.48;100702.83;107441;1260;59138;-69
2023/05/04 10:04:49;;;;;;;10.80;4.90;;;;;;;40.50;17.02;100706.30;107485;1260;65561;-69
2023/05/04 10:07:16;;;;;;;14.40;5.30;;;;;;;40.93;16.75;100699.92;107437;1260;63477;-69
2023/05/04 10:09:43;;;;;;;10.60;5.10;;;;;;;40.84;16.37;100700.45;107298;1263;176927;-68
2023/05/04 10:12:10;;;;;;;13.10;5.50;;;;;;;40.75;16.52;100695.06;107497;1259;59089;-67
2023/05/04 10:14:37;;;;;;;8.70;4.60;;;;;;;40.19;16.70;100687.63;107575;1260;59255;-68
2023/05/04 10:17:13;;;;;;;10.50;5.50;;;;;;;39.97;16.97;100689.52;107562;1264;64472;-68
2023/05/04 10:19:47;;;;;;;8.90;4.90;;;;;;;40.19;16.79;100688.51;107600;1258;62364;-68
2023/05/04 10:22:33;;;;;;;14.30;5.50;;;;;;;40.08;16.55;100687.09;107574;1258;64899;-69
2023/05/04 10:25:09;;;;;;;9.50;5.10;;;;;;;39.34;17.05;100682.44;107590;1260;59559;-69
2023/05/04 10:27:59;;;;;;;9.50;5.50;;;;;;;38.85;17.59;100673.35;107560;1260;61215;-70
2023/05/04 10:30:29;;;;;;;12.40;5.30;;;;;;;38.97;17.60;100672.79;107848;1251;66484;-68
2023/05/04 10:32:56;;;;;;;8.50;5.60;;;;;;;39.09;17.51;100669.60;108114;1251;63807;-69
2023/05/04 10:35:24;;;;;;;13.80;5.60;;;;;;;39.29;17.38;100665.42;108245;1253;65210;-69
2023/05/04 10:37:53;;;;;;;8.70;5.10;;;;;;;39.61;17.21;100659.92;108236;1253;59481;-69
2023/05/04 10:40:36;;;;;;;7.90;4.90;;;;;;;40.15;16.72;100660.70;108204;1254;59538;-69
2023/05/04 10:43:04;;;;;;;17.10;5.70;;;;;;;40.38;16.57;100662.31;108197;1257;66515;-70
2023/05/04 10:45:38;;;;;;;12.00;5.10;;;;;;;40.24;16.77;100660.81;108207;1253;62450;-69
2023/05/04 10:48:07;;;;;;;8.60;5.20;;;;;;;40.37;16.81;100662.73;108230;1253;65957;-69
2023/05/04 10:50:41;;;;;;;12.70;5.50;;;;;;;40.30;16.58;100657.77;108203;1254;59783;-68
2023/05/04 10:53:08;;;;;;;11.80;5.60;;;;;;;39.87;16.86;100661.71;108177;1251;59958;-69
2023/05/04 10:55:43;;;;;;;9.30;5.80;;;;;;;39.18;17.22;100659.81;108181;1255;66625;-69
2023/05/04 10:58:13;;;;;;;14.30;5.30;;;;;;;39.17;17.24;100660.06;108157;1253;63460;-68
2023/05/04 11:00:41;;;;;;;13.70;5.10;;;;;;;39.35;17.16;100657.70;108203;1257;64864;-71
2023/05/04 11:03:10;;;;;;;13.30;5.50;;;;;;;39.83;16.95;100654.67;108141;1253;59552;-71
2023/05/04 11:05:45;;;;;;;13.00;5.30;;;;;;;39.93;16.79;100651.92;107956;1257;59511;-71
2023/05/04 11:08:20;;;;;;;11.50;5.10;;;;;;;40.11;16.87;100650.69;108053;1253;66344;-71
2023/05/04 11:10:48;;;;;;;10.90;5.00;;;;;;;40.09;16.74;100648.11;108232;1257;62615;-70
2023/05/04 11:13:18;;;;;;;8.80;4.90;;;;;;;40.06;16.56;100647.27;108160;1259;65826;-72